Rosemont, Illinois
Current Conditions -  °F | °C
As of 10:51 PM on Friday 28 Nov 2014 (Local Time) from KORD Reporting Station
Overcast Overcast  
Wind Chill: 25°   Ceiling: 20000
Heat Index: 33°   Visibility: 7mi
Dew Point: 28°   Wind: 10mph
Humidity: 82%   Direction: 180°S
Pressure: 29.88"   Gusts: NA
Location:  42.0188°N, 87.8865°W
Report Text: KORD 290451Z 18009KT 7SM BKN200 OVC240 01/M02 A2988 RMK AO2 SLP125 T00061022
Loading
Personal Weather Stations






























Interactive Weather Map New forecast layout! Learn more

10-Day Weather Forecast

Advertisements
Track Severe Weather on mobile